Terminal Aerodrome Forecast
Issued by NWS

Current Version | Previous Version | Graphics & Text | Print | Product List | Glossary On
Versions: 1 2 3 4 5 6 7 8 9 10 11 12 13 14 15 16 17
000
FTUS41 KILN 192300
TAFLUK
TAF
KLUK 192334Z 2000/2024 06004KT P6SM BKN250
     FM200400 00000KT P6SM FEW250
     FM201400 14004KT P6SM BKN250
     FM202000 16005KT P6SM SCT040 BKN250=

USA.gov is the U.S. government's official web portal to all federal, state and local government web resources and services.